createdAt,value
2023-04-18T00:02:11.053Z,5.30
2023-04-18T00:04:39.665Z,5.40
2023-04-18T00:07:08.175Z,5.40
2023-04-18T00:09:36.415Z,5.40
2023-04-18T00:12:04.943Z,5.30
2023-04-18T00:14:34.119Z,5.30
2023-04-18T00:17:02.960Z,5.20
2023-04-18T00:19:34.295Z,5.20
2023-04-18T00:22:02.895Z,5.30
2023-04-18T00:24:31.522Z,5.10
2023-04-18T00:26:59.815Z,5.10
2023-04-18T00:29:28.301Z,5.10
2023-04-18T00:31:56.501Z,5.10
2023-04-18T00:34:24.687Z,5.00
2023-04-18T00:36:54.217Z,5.00
2023-04-18T00:39:22.384Z,5.00
2023-04-18T00:41:50.496Z,5.00
2023-04-18T00:44:18.742Z,5.00
2023-04-18T00:46:46.867Z,5.00
2023-04-18T00:49:15.322Z,5.00
2023-04-18T00:51:44.589Z,5.00
2023-04-18T00:54:16.241Z,4.90
2023-04-18T00:56:44.642Z,5.00
2023-04-18T00:59:14.240Z,4.90
2023-04-18T01:01:43.283Z,5.00
2023-04-18T01:04:11.941Z,5.00
2023-04-18T01:06:41.705Z,4.90
2023-04-18T01:09:09.861Z,4.90
2023-04-18T01:11:39.427Z,5.00
2023-04-18T01:14:09.514Z,4.90
2023-04-18T01:16:38.836Z,4.80
2023-04-18T01:19:07.264Z,4.80
2023-04-18T01:21:37.052Z,4.80
2023-04-18T01:24:15.287Z,4.90
2023-04-18T01:26:47.526Z,4.80
2023-04-18T01:29:15.982Z,4.80
2023-04-18T01:31:44.261Z,4.70
2023-04-18T01:34:12.800Z,4.80
2023-04-18T01:36:41.879Z,4.80
2023-04-18T01:39:10.410Z,4.90
2023-04-18T01:41:40.118Z,4.90
2023-04-18T01:44:08.623Z,4.90
2023-04-18T01:46:37.035Z,4.90
2023-04-18T01:49:06.297Z,4.80
2023-04-18T01:51:34.583Z,4.80
2023-04-18T01:54:02.841Z,4.70
2023-04-18T01:56:31.179Z,4.70
2023-04-18T01:59:00.745Z,4.80
2023-04-18T02:01:30.032Z,4.80
2023-04-18T02:03:58.328Z,4.80
2023-04-18T02:06:26.918Z,4.80
2023-04-18T02:08:55.122Z,4.80
2023-04-18T02:11:23.638Z,4.70
2023-04-18T02:13:51.938Z,4.70
2023-04-18T02:16:21.696Z,4.70
2023-04-18T02:18:52.392Z,4.70
2023-04-18T02:21:21.741Z,4.60
2023-04-18T02:23:49.977Z,4.70
2023-04-18T02:26:18.178Z,4.70
2023-04-18T02:28:46.438Z,4.70
2023-04-18T02:31:15.794Z,4.60
2023-04-18T02:33:47.714Z,4.60
2023-04-18T02:36:16.053Z,4.60
2023-04-18T02:38:44.912Z,4.60
2023-04-18T02:41:17.386Z,4.50
2023-04-18T02:43:45.712Z,4.60
2023-04-18T02:46:14.394Z,4.50
2023-04-18T02:48:44.054Z,4.50
2023-04-18T02:51:12.375Z,4.50
2023-04-18T02:53:40.926Z,4.50
2023-04-18T02:56:09.479Z,4.40
2023-04-18T02:58:37.681Z,4.40
2023-04-18T03:01:06.130Z,4.50
2023-04-18T03:03:34.669Z,4.50
2023-04-18T03:06:04.518Z,4.40
2023-04-18T03:08:32.769Z,4.40
2023-04-18T03:11:00.945Z,4.30
2023-04-18T03:13:29.259Z,4.40
2023-04-18T03:15:57.585Z,4.30
2023-04-18T03:18:27.695Z,4.30
2023-04-18T03:20:55.997Z,4.20
2023-04-18T03:23:25.704Z,4.30
2023-04-18T03:25:54.117Z,4.30
2023-04-18T03:28:22.369Z,4.20
2023-04-18T03:30:50.657Z,4.20
2023-04-18T03:33:19.068Z,4.20
2023-04-18T03:35:47.313Z,4.30
2023-04-18T03:38:15.599Z,4.20
2023-04-18T03:40:46.213Z,4.30
2023-04-18T03:43:14.460Z,4.30
2023-04-18T03:45:44.464Z,4.30
2023-04-18T03:48:12.736Z,4.20
2023-04-18T03:50:41.319Z,4.30
2023-04-18T03:53:09.582Z,4.30
2023-04-18T03:55:37.800Z,4.20
2023-04-18T03:58:07.365Z,4.10
2023-04-18T04:00:35.810Z,4.20
2023-04-18T04:03:04.294Z,4.20
2023-04-18T04:05:32.826Z,4.30
2023-04-18T04:08:01.178Z,4.20
2023-04-18T04:10:29.443Z,4.30
2023-04-18T04:12:57.655Z,4.30
2023-04-18T04:15:27.228Z,4.30
2023-04-18T04:17:55.535Z,4.30
2023-04-18T04:20:24.801Z,4.40
2023-04-18T04:22:53.987Z,4.40
2023-04-18T04:25:23.881Z,4.50
2023-04-18T04:27:53.632Z,4.50
2023-04-18T04:30:22.666Z,4.60
2023-04-18T04:32:52.600Z,4.50
2023-04-18T04:35:21.107Z,4.50
2023-04-18T04:37:50.661Z,4.60
2023-04-18T04:40:18.858Z,4.60
2023-04-18T04:42:49.137Z,4.60
2023-04-18T04:45:17.447Z,4.60
2023-04-18T04:47:45.745Z,4.70
2023-04-18T04:50:16.257Z,4.70
2023-04-18T04:52:44.742Z,4.70
2023-04-18T04:55:13.048Z,4.80
2023-04-18T04:57:41.395Z,4.90
2023-04-18T05:00:12.334Z,5.00
2023-04-18T05:02:43.392Z,5.10
2023-04-18T05:05:11.994Z,5.20
2023-04-18T05:07:41.750Z,5.10
2023-04-18T05:10:11.407Z,5.20
2023-04-18T05:12:40.078Z,5.20
2023-04-18T05:15:09.531Z,5.30
2023-04-18T05:17:37.841Z,5.20
2023-04-18T05:20:07.636Z,5.20
2023-04-18T05:22:36.772Z,5.30
2023-04-18T05:25:08.202Z,5.30
2023-04-18T05:27:36.639Z,5.30
2023-04-18T05:30:05.616Z,5.40
2023-04-18T05:32:34.560Z,5.50
2023-04-18T05:35:03.338Z,5.50
2023-04-18T05:37:31.560Z,5.70
2023-04-18T05:40:00.967Z,5.60
2023-04-18T05:42:31.038Z,5.50
2023-04-18T05:44:59.384Z,5.70
2023-04-18T05:47:28.646Z,5.50
2023-04-18T05:49:57.565Z,5.50
2023-04-18T05:52:26.098Z,5.60
2023-04-18T05:54:54.763Z,5.50
2023-04-18T05:57:23.040Z,5.70
2023-04-18T05:59:52.675Z,5.70
2023-04-18T06:02:21.091Z,5.60
2023-04-18T06:04:49.891Z,5.70
2023-04-18T06:07:18.425Z,5.70
2023-04-18T06:09:46.628Z,5.80
2023-04-18T06:12:14.836Z,5.80
2023-04-18T06:14:43.074Z,5.80
2023-04-18T06:17:14.703Z,5.90
2023-04-18T06:19:42.994Z,5.70
2023-04-18T06:22:11.655Z,5.80
2023-04-18T06:24:40.089Z,5.80
2023-04-18T06:27:15.053Z,5.80
2023-04-18T06:29:52.808Z,5.80
2023-04-18T06:32:22.417Z,5.90
2023-04-18T06:34:50.984Z,6.00
2023-04-18T06:37:19.711Z,6.10
2023-04-18T06:39:47.933Z,6.20
2023-04-18T06:42:16.237Z,6.40
2023-04-18T06:44:44.439Z,6.40
2023-04-18T06:47:12.832Z,6.40
2023-04-18T06:49:42.412Z,6.60
2023-04-18T06:52:10.659Z,6.80
2023-04-18T06:54:38.802Z,7.00
2023-04-18T06:57:07.096Z,7.20
2023-04-18T06:59:35.729Z,7.30
2023-04-18T07:02:04.198Z,7.30
2023-04-18T07:04:32.574Z,7.40
2023-04-18T07:07:03.717Z,7.40
2023-04-18T07:09:32.372Z,7.60
2023-04-18T07:12:00.638Z,7.50
2023-04-18T07:14:28.844Z,7.60
2023-04-18T07:16:57.661Z,7.70
2023-04-18T07:19:25.927Z,7.90
2023-04-18T07:21:55.860Z,8.00
2023-04-18T07:24:25.632Z,8.10
2023-04-18T07:26:55.148Z,8.10
2023-04-18T07:29:23.654Z,8.20
2023-04-18T07:31:52.204Z,8.20
2023-04-18T07:34:21.951Z,8.30
2023-04-18T07:36:50.557Z,8.40
2023-04-18T07:39:18.808Z,8.50
2023-04-18T07:41:48.351Z,8.60
2023-04-18T07:44:16.547Z,8.70
2023-04-18T07:46:45.232Z,8.70
2023-04-18T07:49:14.091Z,8.80
2023-04-18T07:51:42.522Z,8.90
2023-04-18T07:54:11.548Z,9.00
2023-04-18T07:56:39.832Z,9.10
2023-04-18T07:59:09.401Z,9.00
2023-04-18T08:01:37.724Z,9.00
2023-04-18T08:04:06.735Z,9.10
2023-04-18T08:06:35.712Z,9.10
2023-04-18T08:09:05.923Z,9.40
2023-04-18T08:11:34.725Z,9.60
2023-04-18T08:14:03.717Z,9.50
2023-04-18T08:16:33.992Z,9.40
2023-04-18T08:19:02.467Z,9.60
2023-04-18T08:21:33.616Z,9.60
2023-04-18T08:24:02.114Z,9.90
2023-04-18T08:26:30.760Z,10.00
2023-04-18T08:28:59.176Z,10.20
2023-04-18T08:31:31.776Z,10.30
2023-04-18T08:34:03.129Z,10.40
2023-04-18T08:36:33.306Z,10.50
2023-04-18T08:39:01.835Z,10.20
2023-04-18T08:41:37.104Z,10.30
2023-04-18T08:44:05.779Z,10.60
2023-04-18T08:46:35.847Z,10.70
2023-04-18T08:49:06.221Z,10.80
2023-04-18T08:51:34.899Z,10.70
2023-04-18T08:54:06.554Z,10.80
2023-04-18T08:56:37.408Z,10.90
2023-04-18T08:59:05.978Z,11.10
2023-04-18T09:01:56.556Z,11.10
2023-04-18T09:04:38.094Z,11.20
2023-04-18T09:07:09.766Z,11.40
2023-04-18T09:09:50.025Z,11.30
2023-04-18T09:12:22.436Z,11.40
2023-04-18T09:14:53.432Z,11.30
2023-04-18T09:17:35.089Z,11.50
2023-04-18T09:20:09.797Z,11.60
2023-04-18T09:22:48.976Z,11.70
2023-04-18T09:25:29.172Z,11.70
2023-04-18T09:28:00.874Z,11.80
2023-04-18T09:30:36.814Z,11.90
2023-04-18T09:33:09.523Z,12.00
2023-04-18T09:35:40.068Z,12.00
2023-04-18T09:38:09.476Z,12.00
2023-04-18T09:40:38.208Z,12.20
2023-04-18T09:43:20.968Z,12.10
2023-04-18T09:45:49.749Z,12.20
2023-04-18T09:48:18.113Z,12.30
2023-04-18T09:50:51.033Z,12.20
2023-04-18T09:53:21.283Z,12.20
2023-04-18T09:55:55.489Z,12.20
2023-04-18T09:58:33.752Z,12.40
2023-04-18T10:01:03.350Z,12.30
2023-04-18T10:03:45.472Z,12.30
2023-04-18T10:06:19.595Z,12.50
2023-04-18T10:08:52.929Z,12.50
2023-04-18T10:11:21.886Z,12.50
2023-04-18T10:13:56.971Z,12.70
2023-04-18T10:16:27.147Z,12.70
2023-04-18T10:18:56.474Z,12.60
2023-04-18T10:21:27.661Z,12.50
2023-04-18T10:23:55.908Z,12.50
2023-04-18T10:26:50.221Z,12.90
2023-04-18T10:29:19.070Z,12.90
2023-04-18T10:31:49.164Z,12.50
2023-04-18T10:34:20.228Z,12.80
2023-04-18T10:37:08.209Z,12.90
2023-04-18T10:39:56.922Z,12.70
2023-04-18T10:42:59.257Z,12.70
2023-04-18T10:45:31.225Z,12.60
2023-04-18T10:48:25.811Z,12.50
2023-04-18T10:51:15.609Z,12.70
2023-04-18T10:53:53.550Z,12.70
2023-04-18T10:56:22.395Z,12.70
2023-04-18T10:58:53.421Z,12.40
2023-04-18T11:01:32.101Z,12.50
2023-04-18T11:04:02.036Z,12.50
2023-04-18T11:06:31.360Z,12.30
2023-04-18T11:09:14.523Z,12.30
2023-04-18T11:11:44.009Z,12.30
2023-04-18T11:14:12.896Z,12.20
2023-04-18T11:16:41.786Z,12.10
2023-04-18T11:19:23.367Z,12.20
2023-04-18T11:21:52.750Z,12.10
2023-04-18T11:24:25.742Z,12.20
2023-04-18T11:26:55.823Z,12.20
2023-04-18T11:29:26.203Z,12.20
2023-04-18T11:31:57.706Z,12.20
2023-04-18T11:34:41.237Z,12.30
2023-04-18T11:37:09.718Z,12.10
2023-04-18T11:39:44.462Z,12.20
2023-04-18T11:42:13.046Z,12.20
2023-04-18T11:44:43.950Z,12.10
2023-04-18T11:47:28.877Z,12.40
2023-04-18T11:49:59.962Z,12.50
2023-04-18T11:52:30.621Z,12.60
2023-04-18T11:55:14.570Z,12.60
2023-04-18T11:57:43.235Z,12.60
2023-04-18T12:00:13.523Z,12.60
2023-04-18T12:02:44.397Z,12.40
2023-04-18T12:05:15.218Z,12.40
2023-04-18T12:07:46.539Z,12.50
2023-04-18T12:10:29.558Z,12.70
2023-04-18T12:13:00.251Z,12.70
2023-04-18T12:15:32.009Z,12.80
2023-04-18T12:18:02.395Z,12.80
2023-04-18T12:20:39.549Z,12.90
2023-04-18T12:23:09.451Z,13.20
2023-04-18T12:25:39.666Z,13.10
2023-04-18T12:28:16.787Z,13.20
2023-04-18T12:30:45.134Z,13.10
2023-04-18T12:33:13.392Z,13.00
2023-04-18T12:35:42.501Z,13.00
2023-04-18T12:38:11.049Z,13.00
2023-04-18T12:40:42.155Z,13.10
2023-04-18T12:43:11.309Z,13.10
2023-04-18T12:45:39.770Z,13.00
2023-04-18T12:48:08.263Z,13.10
2023-04-18T12:50:36.641Z,13.20
2023-04-18T12:53:06.219Z,13.30
2023-04-18T12:55:34.974Z,13.40
2023-04-18T12:58:04.826Z,13.50
2023-04-18T13:00:33.922Z,13.80
2023-04-18T13:03:02.617Z,14.00
2023-04-18T13:05:34.053Z,14.00
2023-04-18T13:10:34.645Z,14.20
2023-04-18T13:13:04.370Z,14.30
2023-04-18T13:15:33.092Z,14.60
2023-04-18T13:18:04.832Z,14.80
2023-04-18T13:20:33.868Z,14.80
2023-04-18T13:23:03.707Z,14.80
2023-04-18T13:25:32.104Z,14.80
2023-04-18T13:28:00.928Z,14.70
2023-04-18T13:30:31.730Z,14.70
2023-04-18T13:33:00.102Z,14.80
2023-04-18T13:35:28.605Z,14.80
2023-04-18T13:37:57.148Z,15.00
2023-04-18T13:40:25.507Z,15.00
2023-04-18T13:42:54.050Z,14.90
2023-04-18T13:45:22.384Z,14.80
2023-04-18T13:47:52.374Z,14.80
2023-04-18T13:50:20.880Z,14.90
2023-04-18T13:52:51.883Z,15.10
2023-04-18T13:55:21.158Z,15.00
2023-04-18T13:57:49.456Z,15.10
2023-04-18T14:00:19.424Z,15.20
2023-04-18T14:02:48.023Z,15.20
2023-04-18T14:05:19.695Z,15.00
2023-04-18T14:07:48.820Z,14.90
2023-04-18T14:10:17.198Z,14.80
2023-04-18T14:12:45.718Z,14.80
2023-04-18T14:15:14.038Z,15.20
2023-04-18T14:17:44.830Z,15.30
2023-04-18T14:20:15.685Z,15.20
2023-04-18T14:22:45.504Z,15.40
2023-04-18T14:25:14.399Z,15.30
2023-04-18T14:27:42.649Z,15.30
2023-04-18T14:30:12.807Z,15.40
2023-04-18T14:32:41.836Z,15.40
2023-04-18T14:35:12.064Z,15.40
2023-04-18T14:37:40.391Z,15.40
2023-04-18T14:40:12.423Z,15.70
2023-04-18T14:42:40.672Z,15.70
2023-04-18T14:45:14.159Z,15.90
2023-04-18T14:47:42.442Z,16.00
2023-04-18T14:50:12.378Z,16.30
2023-04-18T14:52:41.250Z,16.00
2023-04-18T14:55:11.832Z,16.00
2023-04-18T14:57:40.776Z,16.10
2023-04-18T15:00:11.396Z,16.10
2023-04-18T15:02:40.301Z,16.10
2023-04-18T15:05:09.907Z,16.00
2023-04-18T15:07:38.364Z,16.00
2023-04-18T15:10:08.740Z,16.20
2023-04-18T15:12:38.428Z,16.20
2023-04-18T15:15:08.046Z,16.20
2023-04-18T15:17:36.692Z,16.30
2023-04-18T15:20:07.117Z,16.20
2023-04-18T15:22:35.737Z,16.20
2023-04-18T15:25:05.270Z,16.20
2023-04-18T15:27:34.270Z,15.90
2023-04-18T15:30:04.334Z,15.80
2023-04-18T15:32:33.072Z,15.90
2023-04-18T15:35:01.391Z,15.80
2023-04-18T15:37:29.631Z,15.80
2023-04-18T15:39:58.122Z,15.70
2023-04-18T15:42:26.714Z,15.70
2023-04-18T15:44:55.060Z,15.50
2023-04-18T15:47:24.843Z,15.30
2023-04-18T15:49:53.426Z,15.20
2023-04-18T15:52:21.985Z,15.20
2023-04-18T15:54:51.822Z,15.40
2023-04-18T15:57:21.206Z,15.20
2023-04-18T15:59:49.729Z,15.30
2023-04-18T16:02:18.111Z,15.20
2023-04-18T16:04:47.857Z,14.70
2023-04-18T16:07:17.178Z,15.10
2023-04-18T16:09:45.494Z,15.10
2023-04-18T16:12:13.925Z,15.20
2023-04-18T16:14:44.771Z,15.20
2023-04-18T16:17:13.276Z,15.20
2023-04-18T16:19:42.964Z,15.00
2023-04-18T16:22:12.614Z,15.00
2023-04-18T16:24:42.219Z,15.10
2023-04-18T16:27:11.079Z,15.10
2023-04-18T16:29:39.349Z,15.00
2023-04-18T16:32:08.567Z,15.00
2023-04-18T16:34:37.103Z,14.90
2023-04-18T16:37:05.785Z,14.90
2023-04-18T16:39:37.613Z,14.80
2023-04-18T16:42:06.342Z,14.80
2023-04-18T16:44:34.596Z,14.70
2023-04-18T16:47:05.087Z,14.50
2023-04-18T16:49:33.497Z,14.50
2023-04-18T16:52:02.834Z,14.40
2023-04-18T16:54:31.455Z,14.30
2023-04-18T16:57:01.671Z,14.20
2023-04-18T16:59:30.275Z,14.20
2023-04-18T17:01:58.634Z,14.00
2023-04-18T17:04:27.248Z,13.90
2023-04-18T17:06:55.719Z,13.80
2023-04-18T17:09:24.637Z,13.80
2023-04-18T17:11:52.932Z,13.70
2023-04-18T17:14:22.584Z,13.60
2023-04-18T17:16:53.309Z,13.70
2023-04-18T17:19:22.378Z,13.70
2023-04-18T17:21:50.921Z,13.60
2023-04-18T17:24:22.328Z,13.50
2023-04-18T17:26:51.227Z,13.50
2023-04-18T17:29:19.627Z,13.40
2023-04-18T17:31:49.251Z,13.40
2023-04-18T17:34:17.699Z,13.30
2023-04-18T17:36:46.403Z,13.30
2023-04-18T17:39:16.351Z,13.30
2023-04-18T17:41:46.342Z,13.30
2023-04-18T17:44:14.583Z,13.20
2023-04-18T17:46:42.880Z,13.10
2023-04-18T17:49:19.197Z,13.00
2023-04-18T17:51:47.420Z,13.00
2023-04-18T17:54:15.875Z,13.10
2023-04-18T17:56:45.464Z,13.00
2023-04-18T17:59:13.868Z,13.00
2023-04-18T18:01:42.363Z,12.90
2023-04-18T18:04:13.440Z,12.80
2023-04-18T18:06:42.230Z,12.70
2023-04-18T18:09:10.611Z,12.60
2023-04-18T18:11:39.814Z,12.70
2023-04-18T18:14:08.471Z,12.60
2023-04-18T18:16:40.413Z,12.70
2023-04-18T18:19:09.026Z,12.50
2023-04-18T18:21:38.836Z,12.40
2023-04-18T18:24:07.502Z,12.50
2023-04-18T18:26:36.037Z,12.40
2023-04-18T18:29:09.280Z,12.40
2023-04-18T18:31:38.056Z,12.30
2023-04-18T18:34:06.811Z,12.20
2023-04-18T18:36:35.014Z,12.30
2023-04-18T18:39:05.577Z,12.20
2023-04-18T18:41:33.964Z,12.10
2023-04-18T18:44:02.211Z,11.90
2023-04-18T18:46:31.036Z,11.70
2023-04-18T18:48:59.371Z,11.60
2023-04-18T18:51:27.900Z,11.70
2023-04-18T18:53:56.717Z,11.60
2023-04-18T18:56:26.367Z,11.40
2023-04-18T18:58:56.309Z,11.30
2023-04-18T19:01:24.989Z,11.30
2023-04-18T19:03:53.390Z,11.20
2023-04-18T19:06:21.752Z,11.00
2023-04-18T19:08:50.176Z,10.90
2023-04-18T19:11:19.222Z,10.90
2023-04-18T19:13:48.886Z,10.80
2023-04-18T19:16:17.234Z,10.70
2023-04-18T19:18:47.087Z,10.60
2023-04-18T19:21:15.349Z,10.50
2023-04-18T19:23:43.652Z,10.40
2023-04-18T19:26:14.335Z,10.30
2023-04-18T19:28:42.548Z,10.20
2023-04-18T19:31:12.210Z,10.10
2023-04-18T19:33:40.559Z,10.00
2023-04-18T19:36:09.040Z,9.90
2023-04-18T19:38:37.340Z,9.70
2023-04-18T19:41:05.614Z,9.70
2023-04-18T19:43:34.568Z,9.70
2023-04-18T19:46:03.248Z,9.70
2023-04-18T19:48:33.215Z,9.70
2023-04-18T19:51:01.606Z,9.50
2023-04-18T19:53:30.054Z,9.50
2023-04-18T19:55:58.274Z,9.50
2023-04-18T19:58:37.917Z,9.30
2023-04-18T20:01:07.610Z,9.20
2023-04-18T20:03:38.373Z,9.20
2023-04-18T20:06:08.093Z,9.10
2023-04-18T20:08:37.885Z,9.10
2023-04-18T20:11:08.391Z,9.00
2023-04-18T20:13:37.270Z,8.90
2023-04-18T20:16:06.315Z,8.80
2023-04-18T20:18:37.609Z,8.90
2023-04-18T20:21:09.200Z,8.80
2023-04-18T20:23:38.417Z,8.70
2023-04-18T20:26:07.483Z,8.70
2023-04-18T20:28:36.201Z,8.60
2023-04-18T20:31:04.743Z,8.60
2023-04-18T20:33:33.063Z,8.50
2023-04-18T20:36:02.634Z,8.40
2023-04-18T20:38:30.806Z,8.40
2023-04-18T20:41:00.819Z,8.50
2023-04-18T20:43:37.787Z,8.40
2023-04-18T20:46:07.245Z,8.30
2023-04-18T20:48:35.804Z,8.30
2023-04-18T20:51:06.071Z,8.30
2023-04-18T20:53:34.549Z,8.30
2023-04-18T20:56:03.428Z,8.30
2023-04-18T20:58:34.673Z,8.20
2023-04-18T21:01:02.937Z,8.20
2023-04-18T21:03:31.307Z,8.20
2023-04-18T21:05:59.619Z,8.20
2023-04-18T21:08:29.312Z,8.10
2023-04-18T21:10:57.658Z,8.10
2023-04-18T21:13:26.024Z,8.20
2023-04-18T21:15:57.040Z,8.20
2023-04-18T21:18:25.635Z,8.30
2023-04-18T21:20:54.087Z,8.30
2023-04-18T21:23:24.318Z,8.30
2023-04-18T21:25:54.149Z,8.30
2023-04-18T21:28:22.520Z,8.30
2023-04-18T21:30:50.846Z,8.60
2023-04-18T21:33:19.295Z,8.30
2023-04-18T21:35:47.698Z,8.30
2023-04-18T21:38:15.958Z,8.30
2023-04-18T21:40:44.229Z,8.30
2023-04-18T21:43:13.820Z,8.30
2023-04-18T21:45:42.194Z,8.20
2023-04-18T21:48:11.443Z,8.20
2023-04-18T21:50:39.894Z,8.30
2023-04-18T21:53:08.102Z,8.20
2023-04-18T21:55:36.350Z,8.20
2023-04-18T21:58:04.617Z,8.20
2023-04-18T22:00:34.358Z,8.20
2023-04-18T22:03:02.996Z,8.10
2023-04-18T22:05:33.330Z,8.30
2023-04-18T22:08:02.985Z,8.10
2023-04-18T22:10:31.298Z,8.10
2023-04-18T22:13:00.237Z,8.10
2023-04-18T22:15:28.516Z,8.20
2023-04-18T22:17:59.062Z,8.10
2023-04-18T22:20:27.951Z,7.90
2023-04-18T22:22:56.263Z,7.90
2023-04-18T22:25:24.505Z,7.90
2023-04-18T22:27:52.742Z,7.80
2023-04-18T22:30:21.239Z,7.80
2023-04-18T22:32:49.564Z,7.80
2023-04-18T22:35:19.743Z,7.80
2023-04-18T22:37:48.048Z,7.80
2023-04-18T22:40:16.761Z,7.80
2023-04-18T22:42:45.042Z,7.80
2023-04-18T22:45:13.665Z,7.70
2023-04-18T22:47:42.082Z,7.80
2023-04-18T22:50:11.286Z,7.80
2023-04-18T22:52:41.213Z,7.90
2023-04-18T22:55:11.005Z,7.80
2023-04-18T22:57:40.024Z,7.80
2023-04-18T23:00:11.043Z,7.80
2023-04-18T23:02:39.511Z,7.80
2023-04-18T23:05:08.974Z,7.80
2023-04-18T23:07:37.258Z,7.80
2023-04-18T23:10:09.097Z,7.70
2023-04-18T23:12:37.527Z,7.70
2023-04-18T23:15:07.256Z,7.70
2023-04-18T23:17:35.868Z,7.70
2023-04-18T23:20:06.770Z,7.60
2023-04-18T23:22:35.133Z,7.70
2023-04-18T23:25:03.506Z,7.70
2023-04-18T23:27:33.546Z,7.70
2023-04-18T23:30:02.014Z,7.70
2023-04-18T23:32:30.374Z,7.60
2023-04-18T23:35:03.760Z,7.60
2023-04-18T23:37:32.717Z,7.60
2023-04-18T23:40:01.385Z,7.60
2023-04-18T23:42:30.001Z,7.50
2023-04-18T23:44:59.803Z,7.60
2023-04-18T23:47:28.123Z,7.60
2023-04-18T23:49:56.641Z,7.60
2023-04-18T23:52:25.888Z,7.60
2023-04-18T23:54:54.243Z,7.60
2023-04-18T23:57:22.637Z,7.60
2023-04-18T23:59:51.051Z,7.50
